sensor_id;sensor_type;location;lat;lon;timestamp;pressure;altitude;pressure_sealevel;temperature;humidity
56182;BME280;51963;46.052;14.544;2023-02-17T00:00:59;99344.53;;;2.32;100.00
56182;BME280;51963;46.052;14.544;2023-02-17T00:03:24;99348.78;;;2.33;100.00
56182;BME280;51963;46.052;14.544;2023-02-17T00:05:50;99366.72;;;2.38;100.00
56182;BME280;51963;46.052;14.544;2023-02-17T00:08:16;99362.78;;;2.32;100.00
56182;BME280;51963;46.052;14.544;2023-02-17T00:10:41;99351.72;;;2.28;100.00
56182;BME280;51963;46.052;14.544;2023-02-17T00:13:07;99357.78;;;2.29;100.00
56182;BME280;51963;46.052;14.544;2023-02-17T00:15:33;99348.38;;;2.26;100.00
56182;BME280;51963;46.052;14.544;2023-02-17T00:17:58;99341.72;;;2.22;100.00
56182;BME280;51963;46.052;14.544;2023-02-17T00:20:24;99346.56;;;2.15;100.00
56182;BME280;51963;46.052;14.544;2023-02-17T00:22:49;99346.28;;;2.07;100.00
56182;BME280;51963;46.052;14.544;2023-02-17T00:25:15;99354.13;;;1.94;100.00
56182;BME280;51963;46.052;14.544;2023-02-17T00:27:40;99362.44;;;2.12;100.00
56182;BME280;51963;46.052;14.544;2023-02-17T00:30:06;99348.25;;;2.03;100.00
56182;BME280;51963;46.052;14.544;2023-02-17T00:32:32;99344.53;;;1.95;100.00
56182;BME280;51963;46.052;14.544;2023-02-17T00:34:57;99342.25;;;1.90;100.00
56182;BME280;51963;46.052;14.544;2023-02-17T00:37:23;99340.91;;;1.84;100.00
56182;BME280;51963;46.052;14.544;2023-02-17T00:39:49;99351.56;;;1.81;100.00
56182;BME280;51963;46.052;14.544;2023-02-17T00:42:17;99342.50;;;1.74;100.00
56182;BME280;51963;46.052;14.544;2023-02-17T00:44:43;99353.22;;;1.82;100.00
56182;BME280;51963;46.052;14.544;2023-02-17T00:47:08;99358.66;;;1.79;100.00
56182;BME280;51963;46.052;14.544;2023-02-17T00:49:34;99350.84;;;1.79;100.00
56182;BME280;51963;46.052;14.544;2023-02-17T00:51:59;99351.97;;;1.75;100.00
56182;BME280;51963;46.052;14.544;2023-02-17T00:54:31;99353.53;;;1.78;100.00
56182;BME280;51963;46.052;14.544;2023-02-17T00:56:57;99353.53;;;1.78;100.00
56182;BME280;51963;46.052;14.544;2023-02-17T00:59:22;99352.06;;;1.86;100.00
56182;BME280;51963;46.052;14.544;2023-02-17T01:01:48;99348.75;;;1.84;100.00
56182;BME280;51963;46.052;14.544;2023-02-17T01:04:14;99348.09;;;1.81;100.00
56182;BME280;51963;46.052;14.544;2023-02-17T01:06:39;99345.63;;;1.79;100.00
56182;BME280;51963;46.052;14.544;2023-02-17T01:09:06;99349.47;;;1.73;100.00
56182;BME280;51963;46.052;14.544;2023-02-17T01:11:33;99345.41;;;1.82;100.00
56182;BME280;51963;46.052;14.544;2023-02-17T01:13:59;99345.41;;;1.82;100.00
56182;BME280;51963;46.052;14.544;2023-02-17T01:16:29;99343.94;;;1.78;100.00
56182;BME280;51963;46.052;14.544;2023-02-17T01:18:57;99338.09;;;1.74;100.00
56182;BME280;51963;46.052;14.544;2023-02-17T01:21:24;99333.94;;;1.72;100.00
56182;BME280;51963;46.052;14.544;2023-02-17T01:23:50;99346.34;;;1.68;100.00
56182;BME280;51963;46.052;14.544;2023-02-17T01:26:17;99336.03;;;1.67;100.00
56182;BME280;51963;46.052;14.544;2023-02-17T01:28:43;99340.41;;;1.66;100.00
56182;BME280;51963;46.052;14.544;2023-02-17T01:31:09;99333.44;;;1.67;100.00
56182;BME280;51963;46.052;14.544;2023-02-17T01:33:36;99338.66;;;1.67;100.00
56182;BME280;51963;46.052;14.544;2023-02-17T01:36:03;99335.09;;;1.68;100.00
56182;BME280;51963;46.052;14.544;2023-02-17T01:38:28;99341.03;;;1.70;100.00
56182;BME280;51963;46.052;14.544;2023-02-17T01:40:54;99342.91;;;1.68;100.00
56182;BME280;51963;46.052;14.544;2023-02-17T01:43:20;99343.88;;;1.67;100.00
56182;BME280;51963;46.052;14.544;2023-02-17T01:45:51;99342.59;;;1.72;100.00
56182;BME280;51963;46.052;14.544;2023-02-17T01:48:18;99346.97;;;1.72;100.00
56182;BME280;51963;46.052;14.544;2023-02-17T01:50:52;99341.25;;;1.67;100.00
56182;BME280;51963;46.052;14.544;2023-02-17T01:53:19;99338.94;;;1.75;100.00
56182;BME280;51963;46.052;14.544;2023-02-17T01:55:47;99336.78;;;1.69;100.00
56182;BME280;51963;46.052;14.544;2023-02-17T01:58:13;99335.09;;;1.68;100.00
56182;BME280;51963;46.052;14.544;2023-02-17T02:00:40;99332.91;;;1.61;100.00
56182;BME280;51963;46.052;14.544;2023-02-17T02:03:07;99338.22;;;1.60;100.00
56182;BME280;51963;46.052;14.544;2023-02-17T02:05:33;99340.44;;;1.53;100.00
56182;BME280;51963;46.052;14.544;2023-02-17T02:07:59;99333.56;;;1.52;100.00
56182;BME280;51963;46.052;14.544;2023-02-17T02:10:24;99332.72;;;1.65;100.00
56182;BME280;51963;46.052;14.544;2023-02-17T02:12:50;99321.63;;;1.74;100.00
56182;BME280;51963;46.052;14.544;2023-02-17T02:15:20;99322.28;;;1.65;100.00
56182;BME280;51963;46.052;14.544;2023-02-17T02:20:27;99325.09;;;1.61;100.00
56182;BME280;51963;46.052;14.544;2023-02-17T02:23:16;99309.16;;;1.53;100.00
56182;BME280;51963;46.052;14.544;2023-02-17T02:31:05;99307.53;;;1.26;100.00
56182;BME280;51963;46.052;14.544;2023-02-17T02:36:33;99336.06;;;1.15;100.00
56182;BME280;51963;46.052;14.544;2023-02-17T02:39:09;99323.16;;;1.26;100.00
56182;BME280;51963;46.052;14.544;2023-02-17T02:41:55;99324.81;;;1.27;100.00
56182;BME280;51963;46.052;14.544;2023-02-17T02:44:21;99319.91;;;1.23;100.00
56182;BME280;51963;46.052;14.544;2023-02-17T02:47:04;99321.06;;;1.19;100.00
56182;BME280;51963;46.052;14.544;2023-02-17T02:49:30;99322.94;;;1.04;100.00
56182;BME280;51963;46.052;14.544;2023-02-17T02:52:09;99318.34;;;0.94;100.00
56182;BME280;51963;46.052;14.544;2023-02-17T02:54:47;99308.94;;;0.92;100.00
56182;BME280;51963;46.052;14.544;2023-02-17T02:57:27;99310.00;;;0.89;100.00
56182;BME280;51963;46.052;14.544;2023-02-17T03:02:35;99311.16;;;0.85;100.00
56182;BME280;51963;46.052;14.544;2023-02-17T03:10:06;99314.81;;;0.95;100.00
56182;BME280;51963;46.052;14.544;2023-02-17T03:12:32;99306.78;;;0.98;100.00
56182;BME280;51963;46.052;14.544;2023-02-17T03:15:02;99317.28;;;0.97;100.00
56182;BME280;51963;46.052;14.544;2023-02-17T03:17:32;99315.00;;;1.05;100.00
56182;BME280;51963;46.052;14.544;2023-02-17T03:20:02;99322.50;;;0.97;100.00
56182;BME280;51963;46.052;14.544;2023-02-17T03:22:34;99325.94;;;0.97;100.00
56182;BME280;51963;46.052;14.544;2023-02-17T03:25:01;99328.66;;;1.09;100.00
56182;BME280;51963;46.052;14.544;2023-02-17T03:27:27;99330.03;;;1.01;100.00
56182;BME280;51963;46.052;14.544;2023-02-17T03:29:53;99328.16;;;1.04;100.00
56182;BME280;51963;46.052;14.544;2023-02-17T03:32:19;99328.34;;;1.26;100.00
56182;BME280;51963;46.052;14.544;2023-02-17T03:34:45;99334.00;;;1.20;100.00
56182;BME280;51963;46.052;14.544;2023-02-17T03:37:10;99331.28;;;1.35;100.00
56182;BME280;51963;46.052;14.544;2023-02-17T03:39:36;99335.44;;;1.24;100.00
56182;BME280;51963;46.052;14.544;2023-02-17T03:42:02;99342.13;;;1.28;100.00
56182;BME280;51963;46.052;14.544;2023-02-17T03:44:27;99342.81;;;1.17;100.00
56182;BME280;51963;46.052;14.544;2023-02-17T03:46:53;99335.25;;;1.27;100.00
56182;BME280;51963;46.052;14.544;2023-02-17T03:49:18;99336.91;;;1.28;100.00
56182;BME280;51963;46.052;14.544;2023-02-17T03:51:44;99347.53;;;1.25;100.00
56182;BME280;51963;46.052;14.544;2023-02-17T03:54:09;99341.06;;;1.18;100.00
56182;BME280;51963;46.052;14.544;2023-02-17T03:56:35;99342.75;;;1.19;100.00
56182;BME280;51963;46.052;14.544;2023-02-17T03:59:00;99334.19;;;1.17;100.00
56182;BME280;51963;46.052;14.544;2023-02-17T04:01:25;99336.28;;;1.12;100.00
56182;BME280;51963;46.052;14.544;2023-02-17T04:03:51;99343.47;;;1.34;100.00
56182;BME280;51963;46.052;14.544;2023-02-17T04:06:16;99340.13;;;1.32;100.00
56182;BME280;51963;46.052;14.544;2023-02-17T04:08:42;99342.09;;;1.54;100.00
56182;BME280;51963;46.052;14.544;2023-02-17T04:11:08;99334.19;;;1.43;100.00
56182;BME280;51963;46.052;14.544;2023-02-17T04:13:34;99335.00;;;1.56;100.00
56182;BME280;51963;46.052;14.544;2023-02-17T04:16:00;99329.91;;;1.42;100.00
56182;BME280;51963;46.052;14.544;2023-02-17T04:18:26;99334.19;;;1.43;100.00
56182;BME280;51963;46.052;14.544;2023-02-17T04:20:52;99327.31;;;1.29;100.00
56182;BME280;51963;46.052;14.544;2023-02-17T04:23:18;99336.78;;;1.30;100.00
56182;BME280;51963;46.052;14.544;2023-02-17T04:25:44;99328.16;;;1.29;100.00
56182;BME280;51963;46.052;14.544;2023-02-17T04:28:10;99322.72;;;1.33;100.00
56182;BME280;51963;46.052;14.544;2023-02-17T04:30:36;99318.25;;;1.35;100.00
56182;BME280;51963;46.052;14.544;2023-02-17T04:33:02;99322.53;;;1.36;100.00
56182;BME280;51963;46.052;14.544;2023-02-17T04:35:27;99312.31;;;1.33;100.00
56182;BME280;51963;46.052;14.544;2023-02-17T04:37:53;99318.75;;;1.27;100.00
56182;BME280;51963;46.052;14.544;2023-02-17T04:40:18;99317.09;;;1.26;100.00
56182;BME280;51963;46.052;14.544;2023-02-17T04:42:44;99312.09;;;1.36;100.00
56182;BME280;51963;46.052;14.544;2023-02-17T04:45:10;99306.25;;;1.32;100.00
56182;BME280;51963;46.052;14.544;2023-02-17T04:47:36;99317.06;;;1.52;100.00
56182;BME280;51963;46.052;14.544;2023-02-17T04:50:02;99321.25;;;1.41;100.00
56182;BME280;51963;46.052;14.544;2023-02-17T04:52:28;99332.09;;;1.35;100.00
56182;BME280;51963;46.052;14.544;2023-02-17T04:54:53;99319.50;;;1.42;100.00
56182;BME280;51963;46.052;14.544;2023-02-17T04:57:19;99314.59;;;1.37;100.00
56182;BME280;51963;46.052;14.544;2023-02-17T04:59:44;99341.69;;;1.35;100.00
56182;BME280;51963;46.052;14.544;2023-02-17T05:02:10;99335.56;;;1.36;100.00
56182;BME280;51963;46.052;14.544;2023-02-17T05:04:35;99332.63;;;1.40;100.00
56182;BME280;51963;46.052;14.544;2023-02-17T05:07:01;99335.34;;;1.39;100.00
56182;BME280;51963;46.052;14.544;2023-02-17T05:09:26;99337.09;;;1.38;100.00
56182;BME280;51963;46.052;14.544;2023-02-17T05:11:52;99335.25;;;1.27;100.00
56182;BME280;51963;46.052;14.544;2023-02-17T05:14:17;99343.69;;;1.18;100.00
56182;BME280;51963;46.052;14.544;2023-02-17T05:16:43;99345.66;;;1.01;100.00
56182;BME280;51963;46.052;14.544;2023-02-17T05:19:09;99345.84;;;0.98;100.00
56182;BME280;51963;46.052;14.544;2023-02-17T05:21:34;99342.72;;;0.93;100.00
56182;BME280;51963;46.052;14.544;2023-02-17T05:23:59;99344.34;;;0.81;100.00
56182;BME280;51963;46.052;14.544;2023-02-17T05:26:25;99353.88;;;0.95;100.00
56182;BME280;51963;46.052;14.544;2023-02-17T05:28:51;99347.88;;;0.80;100.00
56182;BME280;51963;46.052;14.544;2023-02-17T05:31:16;99347.06;;;0.93;100.00
56182;BME280;51963;46.052;14.544;2023-02-17T05:33:42;99340.59;;;0.85;100.00
56182;BME280;51963;46.052;14.544;2023-02-17T05:36:08;99350.59;;;0.79;100.00
56182;BME280;51963;46.052;14.544;2023-02-17T05:38:34;99345.81;;;0.72;100.00
56182;BME280;51963;46.052;14.544;2023-02-17T05:40:59;99356.81;;;0.63;100.00
56182;BME280;51963;46.052;14.544;2023-02-17T05:43:25;99352.63;;;0.61;100.00
56182;BME280;51963;46.052;14.544;2023-02-17T05:45:51;99351.50;;;0.65;100.00
56182;BME280;51963;46.052;14.544;2023-02-17T05:48:16;99357.34;;;0.68;100.00
56182;BME280;51963;46.052;14.544;2023-02-17T05:50:42;99352.22;;;0.67;100.00
56182;BME280;51963;46.052;14.544;2023-02-17T05:53:08;99362.22;;;0.60;100.00
56182;BME280;51963;46.052;14.544;2023-02-17T05:55:33;99352.41;;;0.51;100.00
56182;BME280;51963;46.052;14.544;2023-02-17T05:57:59;99350.06;;;0.46;100.00
56182;BME280;51963;46.052;14.544;2023-02-17T06:00:24;99351.13;;;0.43;100.00
56182;BME280;51963;46.052;14.544;2023-02-17T06:02:50;99349.47;;;0.42;100.00
56182;BME280;51963;46.052;14.544;2023-02-17T06:05:15;99356.72;;;0.37;100.00
56182;BME280;51963;46.052;14.544;2023-02-17T06:07:41;99345.66;;;0.34;100.00
56182;BME280;51963;46.052;14.544;2023-02-17T06:10:07;99351.06;;;0.31;100.00
56182;BME280;51963;46.052;14.544;2023-02-17T06:12:33;99348.97;;;0.23;100.00
56182;BME280;51963;46.052;14.544;2023-02-17T06:14:58;99350.81;;;0.21;100.00
56182;BME280;51963;46.052;14.544;2023-02-17T06:17:24;99357.69;;;0.22;100.00
56182;BME280;51963;46.052;14.544;2023-02-17T06:19:49;99351.03;;;0.18;100.00
56182;BME280;51963;46.052;14.544;2023-02-17T06:22:15;99357.16;;;0.17;100.00
56182;BME280;51963;46.052;14.544;2023-02-17T06:24:40;99366.44;;;0.21;100.00
56182;BME280;51963;46.052;14.544;2023-02-17T06:27:06;99375.97;;;0.20;100.00
56182;BME280;51963;46.052;14.544;2023-02-17T06:29:31;99364.19;;;0.29;100.00
56182;BME280;51963;46.052;14.544;2023-02-17T06:31:57;99360.25;;;0.36;100.00
56182;BME280;51963;46.052;14.544;2023-02-17T06:34:22;99362.81;;;0.51;100.00
56182;BME280;51963;46.052;14.544;2023-02-17T06:36:48;99364.34;;;0.40;100.00
56182;BME280;51963;46.052;14.544;2023-02-17T06:39:13;99361.19;;;0.35;100.00
56182;BME280;51963;46.052;14.544;2023-02-17T06:41:39;99365.47;;;0.36;100.00
56182;BME280;51963;46.052;14.544;2023-02-17T06:44:04;99368.81;;;0.38;100.00
56182;BME280;51963;46.052;14.544;2023-02-17T06:46:30;99365.69;;;0.46;100.00
56182;BME280;51963;46.052;14.544;2023-02-17T06:48:55;99368.09;;;0.49;100.00
56182;BME280;51963;46.052;14.544;2023-02-17T06:51:21;99366.03;;;0.54;100.00
56182;BME280;51963;46.052;14.544;2023-02-17T06:53:46;99369.91;;;0.62;100.00
56182;BME280;51963;46.052;14.544;2023-02-17T06:56:12;99374.72;;;0.68;100.00
56182;BME280;51963;46.052;14.544;2023-02-17T06:58:37;99373.91;;;0.80;100.00
56182;BME280;51963;46.052;14.544;2023-02-17T07:01:03;99385.31;;;0.92;100.00
56182;BME280;51963;46.052;14.544;2023-02-17T07:03:30;99388.56;;;1.09;100.00
56182;BME280;51963;46.052;14.544;2023-02-17T07:05:58;99379.50;;;1.14;100.00
56182;BME280;51963;46.052;14.544;2023-02-17T07:08:24;99387.13;;;1.30;100.00
56182;BME280;51963;46.052;14.544;2023-02-17T07:10:49;99392.16;;;1.34;100.00
56182;BME280;51963;46.052;14.544;2023-02-17T07:13:15;99388.81;;;1.31;100.00
56182;BME280;51963;46.052;14.544;2023-02-17T07:15:40;99391.09;;;1.23;100.00
56182;BME280;51963;46.052;14.544;2023-02-17T07:18:06;99388.91;;;1.43;100.00
56182;BME280;51963;46.052;14.544;2023-02-17T07:20:31;99381.19;;;1.54;100.00
56182;BME280;51963;46.052;14.544;2023-02-17T07:23:00;99375.16;;;1.67;100.00
56182;BME280;51963;46.052;14.544;2023-02-17T07:25:25;99384.19;;;1.87;100.00
56182;BME280;51963;46.052;14.544;2023-02-17T07:27:51;99387.59;;;2.13;100.00
56182;BME280;51963;46.052;14.544;2023-02-17T07:30:17;99394.09;;;2.32;100.00
56182;BME280;51963;46.052;14.544;2023-02-17T07:32:42;99397.88;;;2.28;100.00
56182;BME280;51963;46.052;14.544;2023-02-17T07:35:08;99391.28;;;2.35;100.00
56182;BME280;51963;46.052;14.544;2023-02-17T07:37:34;99393.78;;;2.61;100.00
56182;BME280;51963;46.052;14.544;2023-02-17T07:39:59;99391.00;;;2.75;100.00
56182;BME280;51963;46.052;14.544;2023-02-17T07:42:28;99390.38;;;2.96;100.00
56182;BME280;51963;46.052;14.544;2023-02-17T07:44:54;99397.97;;;2.99;100.00
56182;BME280;51963;46.052;14.544;2023-02-17T07:47:19;99399.91;;;3.08;100.00
56182;BME280;51963;46.052;14.544;2023-02-17T07:49:45;99389.50;;;3.31;100.00
56182;BME280;51963;46.052;14.544;2023-02-17T07:52:10;99391.94;;;3.69;100.00
56182;BME280;51963;46.052;14.544;2023-02-17T07:54:36;99400.03;;;3.88;100.00
56182;BME280;51963;46.052;14.544;2023-02-17T07:57:01;99395.47;;;4.24;100.00
56182;BME280;51963;46.052;14.544;2023-02-17T07:59:27;99396.34;;;4.58;100.00
56182;BME280;51963;46.052;14.544;2023-02-17T08:01:52;99398.94;;;5.02;100.00
56182;BME280;51963;46.052;14.544;2023-02-17T08:04:18;99401.56;;;5.23;100.00
56182;BME280;51963;46.052;14.544;2023-02-17T08:06:43;99409.06;;;5.27;100.00
56182;BME280;51963;46.052;14.544;2023-02-17T08:09:09;99409.47;;;5.11;100.00
56182;BME280;51963;46.052;14.544;2023-02-17T08:11:54;99404.53;;;4.20;100.00
56182;BME280;51963;46.052;14.544;2023-02-17T08:14:38;99410.25;;;4.14;100.00
56182;BME280;51963;46.052;14.544;2023-02-17T08:17:04;99406.31;;;4.20;100.00
56182;BME280;51963;46.052;14.544;2023-02-17T08:19:30;99404.38;;;4.77;100.00
56182;BME280;51963;46.052;14.544;2023-02-17T08:21:56;99405.94;;;4.80;100.00
56182;BME280;51963;46.052;14.544;2023-02-17T08:24:21;99404.63;;;5.28;100.00
56182;BME280;51963;46.052;14.544;2023-02-17T08:26:49;99407.31;;;5.59;100.00
56182;BME280;51963;46.052;14.544;2023-02-17T08:29:14;99401.75;;;6.14;100.00
56182;BME280;51963;46.052;14.544;2023-02-17T08:31:40;99402.97;;;6.61;99.03
56182;BME280;51963;46.052;14.544;2023-02-17T08:34:10;99394.13;;;6.82;97.75
56182;BME280;51963;46.052;14.544;2023-02-17T08:36:36;99398.28;;;7.04;96.74
56182;BME280;51963;46.052;14.544;2023-02-17T08:39:02;99398.41;;;7.12;95.49
56182;BME280;51963;46.052;14.544;2023-02-17T08:41:32;99394.41;;;7.08;94.96
56182;BME280;51963;46.052;14.544;2023-02-17T08:43:59;99397.16;;;7.16;94.05
56182;BME280;51963;46.052;14.544;2023-02-17T08:46:27;99395.28;;;7.56;93.79
56182;BME280;51963;46.052;14.544;2023-02-17T08:48:53;99383.81;;;7.85;92.66
56182;BME280;51963;46.052;14.544;2023-02-17T08:51:19;99384.09;;;8.20;90.00
56182;BME280;51963;46.052;14.544;2023-02-17T08:53:48;99385.09;;;8.37;87.70
56182;BME280;51963;46.052;14.544;2023-02-17T08:56:14;99375.97;;;8.59;86.54
56182;BME280;51963;46.052;14.544;2023-02-17T08:58:39;99382.38;;;8.47;87.61
56182;BME280;51963;46.052;14.544;2023-02-17T09:01:07;99377.00;;;8.66;86.30
56182;BME280;51963;46.052;14.544;2023-02-17T09:03:33;99373.25;;;8.87;85.33
56182;BME280;51963;46.052;14.544;2023-02-17T09:05:59;99376.13;;;8.58;86.97
56182;BME280;51963;46.052;14.544;2023-02-17T09:08:25;99384.44;;;8.35;87.95
56182;BME280;51963;46.052;14.544;2023-02-17T09:10:51;99381.03;;;8.43;88.37
56182;BME280;51963;46.052;14.544;2023-02-17T09:13:17;99374.22;;;8.50;88.59
56182;BME280;51963;46.052;14.544;2023-02-17T09:15:46;99372.56;;;9.30;84.04
56182;BME280;51963;46.052;14.544;2023-02-17T09:18:11;99369.59;;;9.51;85.15
56182;BME280;51963;46.052;14.544;2023-02-17T09:20:37;99359.44;;;10.07;80.09
56182;BME280;51963;46.052;14.544;2023-02-17T09:23:04;99358.59;;;10.58;78.05
56182;BME280;51963;46.052;14.544;2023-02-17T09:25:29;99363.56;;;10.61;79.16
56182;BME280;51963;46.052;14.544;2023-02-17T09:27:55;99358.25;;;11.44;73.47
56182;BME280;51963;46.052;14.544;2023-02-17T09:30:21;99357.59;;;11.34;73.53
56182;BME280;51963;46.052;14.544;2023-02-17T09:32:46;99356.72;;;11.58;73.89
56182;BME280;51963;46.052;14.544;2023-02-17T09:35:12;99361.78;;;11.84;72.38
56182;BME280;51963;46.052;14.544;2023-02-17T09:37:39;99355.50;;;11.77;72.77
56182;BME280;51963;46.052;14.544;2023-02-17T09:40:05;99354.59;;;12.01;70.87
56182;BME280;51963;46.052;14.544;2023-02-17T09:42:31;99358.16;;;12.49;67.83
56182;BME280;51963;46.052;14.544;2023-02-17T09:45:02;99357.41;;;12.63;68.69
56182;BME280;51963;46.052;14.544;2023-02-17T09:48:04;99346.38;;;12.74;68.04
56182;BME280;51963;46.052;14.544;2023-02-17T09:50:22;99354.03;;;12.69;69.38
56182;BME280;51963;46.052;14.544;2023-02-17T09:52:51;99351.19;;;11.76;70.02
56182;BME280;51963;46.052;14.544;2023-02-17T09:55:33;99358.31;;;11.11;73.08
56182;BME280;51963;46.052;14.544;2023-02-17T09:58:08;99360.25;;;11.25;72.88
56182;BME280;51963;46.052;14.544;2023-02-17T10:01:10;99354.63;;;11.37;73.21
56182;BME280;51963;46.052;14.544;2023-02-17T10:03:35;99354.34;;;12.74;71.01
56182;BME280;51963;46.052;14.544;2023-02-17T10:08:30;99348.06;;;12.90;69.74
56182;BME280;51963;46.052;14.544;2023-02-17T10:11:31;99345.53;;;13.12;66.83
56182;BME280;51963;46.052;14.544;2023-02-17T10:13:49;99330.72;;;14.23;63.94
56182;BME280;51963;46.052;14.544;2023-02-17T10:16:20;99334.66;;;14.12;63.46
56182;BME280;51963;46.052;14.544;2023-02-17T10:18:48;99330.78;;;14.30;62.63
56182;BME280;51963;46.052;14.544;2023-02-17T10:21:17;99321.22;;;15.01;61.02
56182;BME280;51963;46.052;14.544;2023-02-17T10:23:48;99319.38;;;15.30;57.22
56182;BME280;51963;46.052;14.544;2023-02-17T10:31:10;99295.81;;;14.55;59.89
56182;BME280;51963;46.052;14.544;2023-02-17T10:33:37;99309.88;;;14.92;58.44
56182;BME280;51963;46.052;14.544;2023-02-17T10:36:13;99300.78;;;15.85;56.77
56182;BME280;51963;46.052;14.544;2023-02-17T10:41:11;99297.09;;;15.86;56.95
56182;BME280;51963;46.052;14.544;2023-02-17T10:43:38;99302.66;;;14.86;58.28
56182;BME280;51963;46.052;14.544;2023-02-17T10:46:05;99302.78;;;14.56;59.70
56182;BME280;51963;46.052;14.544;2023-02-17T10:51:00;99300.97;;;14.78;60.18
56182;BME280;51963;46.052;14.544;2023-02-17T10:53:33;99303.59;;;16.12;57.96
56182;BME280;51963;46.052;14.544;2023-02-17T11:01:07;99286.88;;;17.71;49.54
56182;BME280;51963;46.052;14.544;2023-02-17T11:03:33;99276.31;;;16.17;51.84
56182;BME280;51963;46.052;14.544;2023-02-17T11:06:05;99279.53;;;17.60;49.16
56182;BME280;51963;46.052;14.544;2023-02-17T11:08:32;99269.19;;;17.11;49.78
56182;BME280;51963;46.052;14.544;2023-02-17T11:11:00;99263.84;;;17.11;49.36
56182;BME280;51963;46.052;14.544;2023-02-17T11:13:34;99266.09;;;17.08;50.38
56182;BME280;51963;46.052;14.544;2023-02-17T11:16:00;99262.06;;;18.03;48.02
56182;BME280;51963;46.052;14.544;2023-02-17T11:18:32;99254.91;;;17.44;48.08
56182;BME280;51963;46.052;14.544;2023-02-17T11:21:01;99254.28;;;17.42;48.71
56182;BME280;51963;46.052;14.544;2023-02-17T11:23:27;99249.91;;;18.90;45.01
56182;BME280;51963;46.052;14.544;2023-02-17T11:25:57;99256.03;;;18.14;46.12
56182;BME280;51963;46.052;14.544;2023-02-17T11:28:23;99251.88;;;18.51;45.07
56182;BME280;51963;46.052;14.544;2023-02-17T11:30:59;99248.72;;;18.60;45.29
56182;BME280;51963;46.052;14.544;2023-02-17T11:33:30;99247.88;;;18.35;44.89
56182;BME280;51963;46.052;14.544;2023-02-17T11:35:56;99245.69;;;19.01;44.27
56182;BME280;51963;46.052;14.544;2023-02-17T11:38:23;99232.69;;;19.23;44.05
56182;BME280;51963;46.052;14.544;2023-02-17T11:40:54;99241.47;;;19.12;43.17
56182;BME280;51963;46.052;14.544;2023-02-17T11:43:20;99230.72;;;18.93;43.16
56182;BME280;51963;46.052;14.544;2023-02-17T11:48:41;99231.94;;;18.97;43.50
56182;BME280;51963;46.052;14.544;2023-02-17T11:51:12;99233.03;;;18.39;44.45
56182;BME280;51963;46.052;14.544;2023-02-17T11:53:51;99230.19;;;17.49;46.62
56182;BME280;51963;46.052;14.544;2023-02-17T11:56:22;99222.84;;;17.44;46.60
56182;BME280;51963;46.052;14.544;2023-02-17T12:06:48;99215.50;;;18.43;45.27
56182;BME280;51963;46.052;14.544;2023-02-17T12:17:15;99191.47;;;18.80;43.22
56182;BME280;51963;46.052;14.544;2023-02-17T12:19:47;99201.00;;;18.25;44.29
56182;BME280;51963;46.052;14.544;2023-02-17T12:22:17;99186.34;;;18.53;44.89
56182;BME280;51963;46.052;14.544;2023-02-17T12:25:02;99181.28;;;18.20;45.53
56182;BME280;51963;46.052;14.544;2023-02-17T12:30:18;99174.25;;;18.25;45.31
56182;BME280;51963;46.052;14.544;2023-02-17T12:32:59;99171.34;;;18.27;45.35
56182;BME280;51963;46.052;14.544;2023-02-17T12:35:50;99169.38;;;17.44;46.88
56182;BME280;51963;46.052;14.544;2023-02-17T12:38:18;99165.06;;;18.65;44.73
56182;BME280;51963;46.052;14.544;2023-02-17T12:45:52;99161.56;;;18.83;43.90
56182;BME280;51963;46.052;14.544;2023-02-17T12:50:53;99162.00;;;18.11;45.31
56182;BME280;51963;46.052;14.544;2023-02-17T12:53:24;99167.81;;;18.96;44.39
56182;BME280;51963;46.052;14.544;2023-02-17T12:55:58;99165.97;;;18.77;44.58
56182;BME280;51963;46.052;14.544;2023-02-17T12:58:26;99159.13;;;19.38;43.02
56182;BME280;51963;46.052;14.544;2023-02-17T13:00:54;99161.56;;;19.39;43.09
56182;BME280;51963;46.052;14.544;2023-02-17T13:03:21;99156.47;;;19.80;42.33
56182;BME280;51963;46.052;14.544;2023-02-17T13:05:50;99155.22;;;19.52;42.92
56182;BME280;51963;46.052;14.544;2023-02-17T13:11:02;99160.94;;;17.80;45.67
56182;BME280;51963;46.052;14.544;2023-02-17T13:13:29;99154.47;;;18.26;45.23
56182;BME280;51963;46.052;14.544;2023-02-17T13:16:08;99145.72;;;18.82;43.96
56182;BME280;51963;46.052;14.544;2023-02-17T13:18:37;99138.75;;;19.18;42.89
56182;BME280;51963;46.052;14.544;2023-02-17T13:26:25;99127.75;;;18.45;44.32
56182;BME280;51963;46.052;14.544;2023-02-17T13:28:52;99128.00;;;18.81;43.42
56182;BME280;51963;46.052;14.544;2023-02-17T13:31:20;99135.19;;;18.61;44.23
56182;BME280;51963;46.052;14.544;2023-02-17T13:33:47;99127.16;;;18.43;44.35
56182;BME280;51963;46.052;14.544;2023-02-17T13:41:25;99138.75;;;18.55;44.45
56182;BME280;51963;46.052;14.544;2023-02-17T13:43:53;99140.72;;;18.67;43.53
56182;BME280;51963;46.052;14.544;2023-02-17T13:46:24;99136.16;;;18.23;44.39
56182;BME280;51963;46.052;14.544;2023-02-17T13:48:57;99135.00;;;17.09;47.04
56182;BME280;51963;46.052;14.544;2023-02-17T13:51:25;99128.75;;;17.29;46.95
56182;BME280;51963;46.052;14.544;2023-02-17T13:53:51;99139.81;;;16.67;47.87
56182;BME280;51963;46.052;14.544;2023-02-17T13:56:24;99143.13;;;16.55;48.05
56182;BME280;51963;46.052;14.544;2023-02-17T13:58:50;99143.75;;;16.31;48.88
56182;BME280;51963;46.052;14.544;2023-02-17T14:01:17;99134.09;;;16.43;49.18
56182;BME280;51963;46.052;14.544;2023-02-17T14:03:48;99138.81;;;16.27;49.44
56182;BME280;51963;46.052;14.544;2023-02-17T14:06:29;99131.44;;;16.16;49.47
56182;BME280;51963;46.052;14.544;2023-02-17T14:08:55;99125.69;;;16.19;50.08
56182;BME280;51963;46.052;14.544;2023-02-17T14:11:22;99115.31;;;16.97;48.24